createdAt,value
2023-03-26T00:01:46.938Z,13.67
2023-03-26T00:04:19.751Z,13.70
2023-03-26T00:06:50.405Z,13.71
2023-03-26T00:09:19.330Z,13.62
2023-03-26T00:11:47.486Z,13.62
2023-03-26T00:14:17.993Z,13.39
2023-03-26T00:16:47.674Z,13.34
2023-03-26T00:19:16.045Z,13.32
2023-03-26T00:21:43.736Z,13.31
2023-03-26T00:24:16.394Z,13.28
2023-03-26T00:26:48.633Z,12.95
2023-03-26T00:29:18.729Z,12.86
2023-03-26T00:31:46.822Z,12.79
2023-03-26T00:34:18.618Z,12.70
2023-03-26T00:36:47.536Z,12.83
2023-03-26T00:39:15.354Z,12.70
2023-03-26T00:41:43.261Z,12.58
2023-03-26T00:44:11.611Z,12.75
2023-03-26T00:46:40.521Z,12.80
2023-03-26T00:49:11.001Z,12.82
2023-03-26T00:51:39.528Z,12.87
2023-03-26T00:54:11.196Z,12.83
2023-03-26T00:56:39.098Z,12.59
2023-03-26T00:59:09.301Z,12.50
2023-03-26T01:01:37.875Z,12.64
2023-03-26T01:04:28.451Z,12.65
2023-03-26T01:07:04.257Z,12.72
2023-03-26T01:09:36.827Z,12.66
2023-03-26T01:12:09.000Z,12.70
2023-03-26T01:14:38.741Z,12.55
2023-03-26T01:17:07.798Z,12.26
2023-03-26T01:19:45.768Z,12.13
2023-03-26T01:22:25.854Z,12.17
2023-03-26T01:24:56.782Z,12.18
2023-03-26T01:27:46.499Z,12.35
2023-03-26T01:30:49.710Z,12.38
2023-03-26T01:33:26.323Z,12.41
2023-03-26T01:36:11.364Z,12.43
2023-03-26T01:38:50.032Z,12.44
2023-03-26T01:41:44.403Z,12.39
2023-03-26T01:44:45.812Z,12.29
2023-03-26T01:47:15.524Z,12.24
2023-03-26T01:49:43.880Z,12.26
2023-03-26T01:52:16.228Z,12.33
2023-03-26T01:54:46.733Z,12.45
2023-03-26T01:57:55.709Z,12.34
2023-03-26T02:00:38.030Z,12.29
2023-03-26T02:03:18.549Z,12.32
2023-03-26T02:05:57.991Z,12.31
2023-03-26T02:08:35.629Z,12.23
2023-03-26T02:11:11.858Z,12.20
2023-03-26T02:13:41.394Z,12.23
2023-03-26T02:16:16.596Z,12.18
2023-03-26T02:18:45.916Z,12.13
2023-03-26T02:21:21.465Z,12.21
2023-03-26T02:23:57.872Z,12.25
2023-03-26T02:26:26.448Z,11.93
2023-03-26T02:29:01.724Z,11.88
2023-03-26T02:31:30.592Z,11.81
2023-03-26T02:33:58.857Z,11.61
2023-03-26T02:36:29.324Z,11.52
2023-03-26T02:39:01.143Z,11.33
2023-03-26T02:41:32.099Z,11.23
2023-03-26T02:44:07.495Z,11.26
2023-03-26T02:46:55.574Z,11.22
2023-03-26T02:49:42.756Z,11.09
2023-03-26T02:52:17.133Z,11.02
2023-03-26T02:54:44.844Z,10.94
2023-03-26T02:57:18.909Z,10.87
2023-03-26T03:00:22.885Z,10.97
2023-03-26T03:03:09.616Z,11.02
2023-03-26T03:06:00.801Z,11.08
2023-03-26T03:08:37.024Z,11.15
2023-03-26T03:11:26.595Z,11.22
2023-03-26T03:13:55.488Z,11.25
2023-03-26T03:16:27.156Z,11.21
2023-03-26T03:18:58.176Z,11.26
2023-03-26T03:21:38.564Z,11.28
2023-03-26T03:24:08.717Z,11.30
2023-03-26T03:26:42.462Z,11.18
2023-03-26T03:29:33.524Z,11.07
2023-03-26T03:32:23.244Z,10.92
2023-03-26T03:34:53.949Z,11.05
2023-03-26T03:37:23.460Z,11.15
2023-03-26T03:39:55.051Z,11.17
2023-03-26T03:42:25.338Z,11.28
2023-03-26T03:44:55.924Z,11.22
2023-03-26T03:47:44.612Z,11.08
2023-03-26T03:50:14.093Z,11.00
2023-03-26T03:52:53.400Z,10.90
2023-03-26T03:55:24.135Z,10.85
2023-03-26T03:57:54.930Z,11.00
2023-03-26T04:00:25.604Z,11.03
2023-03-26T04:03:34.264Z,10.98
2023-03-26T04:06:07.471Z,11.06
2023-03-26T04:08:35.703Z,11.00
2023-03-26T04:11:06.480Z,11.03
2023-03-26T04:13:35.028Z,11.00
2023-03-26T04:16:13.672Z,10.86
2023-03-26T04:18:41.683Z,10.76
2023-03-26T04:21:15.959Z,10.86
2023-03-26T04:23:45.836Z,10.88
2023-03-26T04:26:50.105Z,10.97
2023-03-26T04:29:22.104Z,10.94
2023-03-26T04:31:51.701Z,10.95
2023-03-26T04:34:26.828Z,10.98
2023-03-26T04:37:07.689Z,10.93
2023-03-26T04:39:44.918Z,11.02
2023-03-26T04:42:33.491Z,10.93
2023-03-26T04:45:11.298Z,10.96
2023-03-26T04:47:42.526Z,10.84
2023-03-26T04:50:11.341Z,10.85
2023-03-26T04:52:42.608Z,10.79
2023-03-26T04:55:42.893Z,10.72
2023-03-26T04:58:19.479Z,10.61
2023-03-26T05:01:10.117Z,10.38
2023-03-26T05:03:41.491Z,10.58
2023-03-26T05:06:14.315Z,10.76
2023-03-26T05:08:42.802Z,10.80
2023-03-26T05:11:18.826Z,10.87
2023-03-26T05:13:47.224Z,10.76
2023-03-26T05:16:15.914Z,10.67
2023-03-26T05:18:59.182Z,10.71
2023-03-26T05:21:31.848Z,10.82
2023-03-26T05:24:00.643Z,10.88
2023-03-26T05:26:29.328Z,10.71
2023-03-26T05:28:57.737Z,10.58
2023-03-26T05:31:31.748Z,10.65
2023-03-26T05:34:00.909Z,10.47
2023-03-26T05:36:30.795Z,10.48
2023-03-26T05:39:09.123Z,10.69
2023-03-26T05:42:00.307Z,10.91
2023-03-26T05:44:37.902Z,11.05
2023-03-26T05:47:15.810Z,11.17
2023-03-26T05:49:44.361Z,11.25
2023-03-26T05:52:15.306Z,11.32
2023-03-26T05:55:13.337Z,11.52
2023-03-26T05:57:59.368Z,11.58
2023-03-26T06:00:48.928Z,11.69
2023-03-26T06:03:26.954Z,11.87
2023-03-26T06:06:09.618Z,11.93
2023-03-26T06:09:01.692Z,12.12
2023-03-26T06:11:32.163Z,11.94
2023-03-26T06:14:01.702Z,11.88
2023-03-26T06:16:30.174Z,11.87
2023-03-26T06:19:10.686Z,12.20
2023-03-26T06:21:55.796Z,12.51
2023-03-26T06:24:27.710Z,12.59
2023-03-26T06:27:19.029Z,12.73
2023-03-26T06:29:50.406Z,13.09
2023-03-26T06:32:47.218Z,13.30
2023-03-26T06:35:21.028Z,13.51
2023-03-26T06:37:48.733Z,13.73
2023-03-26T06:40:16.459Z,13.82
2023-03-26T06:43:08.576Z,14.05
2023-03-26T06:46:07.829Z,14.34
2023-03-26T06:48:42.308Z,14.28
2023-03-26T06:51:26.076Z,14.34
2023-03-26T06:54:14.794Z,14.31
2023-03-26T06:56:54.817Z,14.42
2023-03-26T06:59:23.414Z,14.64
2023-03-26T07:02:11.794Z,14.73
2023-03-26T07:05:18.319Z,15.00
2023-03-26T07:08:05.901Z,15.11
2023-03-26T07:10:52.086Z,15.18
2023-03-26T07:13:40.127Z,15.32
2023-03-26T07:16:26.561Z,15.47
2023-03-26T07:19:19.872Z,15.70
2023-03-26T07:21:49.294Z,16.16
2023-03-26T07:24:43.223Z,16.05
2023-03-26T07:27:50.415Z,16.16
2023-03-26T07:30:55.444Z,16.39
2023-03-26T07:34:11.192Z,15.93
2023-03-26T07:37:20.595Z,15.81
2023-03-26T07:40:48.637Z,15.68
2023-03-26T07:43:50.474Z,15.97
2023-03-26T07:46:37.244Z,16.41
2023-03-26T07:49:34.134Z,16.43
2023-03-26T07:52:33.999Z,16.26
2023-03-26T07:55:30.608Z,16.48
2023-03-26T07:58:55.896Z,16.10
2023-03-26T08:01:54.890Z,16.18
2023-03-26T08:04:48.716Z,16.63
2023-03-26T08:07:57.935Z,17.19
2023-03-26T08:10:56.443Z,17.46
2023-03-26T08:13:51.419Z,17.52
2023-03-26T08:16:23.867Z,17.24
2023-03-26T08:19:26.223Z,17.47
2023-03-26T08:21:58.609Z,17.67
2023-03-26T08:24:36.785Z,17.23
2023-03-26T08:27:40.319Z,17.46
2023-03-26T08:30:20.993Z,17.87
2023-03-26T08:33:00.831Z,18.05
2023-03-26T08:35:29.133Z,17.72
2023-03-26T08:37:57.060Z,17.61
2023-03-26T08:41:03.127Z,18.07
2023-03-26T08:43:33.516Z,18.22
2023-03-26T08:46:20.675Z,18.07
2023-03-26T08:48:48.284Z,17.85
2023-03-26T08:51:29.147Z,18.28
2023-03-26T08:58:02.786Z,19.07
2023-03-26T09:00:36.986Z,19.37
2023-03-26T09:03:28.237Z,19.36
2023-03-26T09:06:02.941Z,19.41
2023-03-26T09:08:54.091Z,19.29
2023-03-26T09:11:40.954Z,19.63
2023-03-26T09:14:45.751Z,20.24
2023-03-26T09:17:35.768Z,20.45
2023-03-26T09:20:42.030Z,20.19
2023-03-26T09:23:33.306Z,19.58
2023-03-26T09:26:23.283Z,20.50
2023-03-26T09:29:12.701Z,20.77
2023-03-26T09:32:02.568Z,20.60
2023-03-26T09:35:03.744Z,20.15
2023-03-26T09:37:56.176Z,20.55
2023-03-26T09:40:37.161Z,21.20
2023-03-26T09:43:26.680Z,20.92
2023-03-26T09:46:18.789Z,20.83
2023-03-26T09:49:51.386Z,20.68
2023-03-26T09:52:45.103Z,21.15
2023-03-26T09:55:26.158Z,21.02
2023-03-26T09:58:06.626Z,20.10
2023-03-26T10:00:44.706Z,20.54
2023-03-26T10:03:38.645Z,20.92
2023-03-26T10:06:23.086Z,21.17
2023-03-26T10:09:13.590Z,21.77
2023-03-26T10:12:01.825Z,21.14
2023-03-26T10:14:41.114Z,21.74
2023-03-26T10:17:34.470Z,21.10
2023-03-26T10:20:27.786Z,21.30
2023-03-26T10:23:08.122Z,21.56
2023-03-26T10:26:08.434Z,21.26
2023-03-26T10:29:04.894Z,21.37
2023-03-26T10:31:34.305Z,21.36
2023-03-26T10:34:28.833Z,21.07
2023-03-26T10:37:13.773Z,20.71
2023-03-26T10:40:06.922Z,20.36
2023-03-26T10:42:50.929Z,20.52
2023-03-26T10:45:35.631Z,19.90
2023-03-26T10:48:30.391Z,19.74
2023-03-26T10:51:26.581Z,19.58
2023-03-26T10:54:08.252Z,20.32
2023-03-26T10:56:41.588Z,21.50
2023-03-26T10:59:13.382Z,22.48
2023-03-26T11:01:47.327Z,23.63
2023-03-26T11:04:46.531Z,25.01
2023-03-26T11:07:51.934Z,25.91
2023-03-26T11:10:32.169Z,26.90
2023-03-26T11:13:09.381Z,26.81
2023-03-26T11:15:50.632Z,26.14
2023-03-26T11:18:33.021Z,26.68
2023-03-26T11:21:24.196Z,26.65
2023-03-26T11:24:11.204Z,26.87
2023-03-26T11:26:56.478Z,26.12
2023-03-26T11:30:04.176Z,26.47
2023-03-26T11:32:55.218Z,25.28
2023-03-26T11:35:39.636Z,26.26
2023-03-26T11:38:22.274Z,26.35
2023-03-26T11:40:54.254Z,27.97
2023-03-26T11:43:53.114Z,28.23
2023-03-26T11:46:25.117Z,28.24
2023-03-26T11:48:59.470Z,26.58
2023-03-26T11:51:33.239Z,27.44
2023-03-26T11:54:03.268Z,28.42
2023-03-26T11:56:36.170Z,28.21
2023-03-26T11:59:53.196Z,28.18
2023-03-26T12:02:34.275Z,28.07
2023-03-26T12:05:26.800Z,28.28
2023-03-26T12:08:00.340Z,27.66
2023-03-26T12:10:35.364Z,26.89
2023-03-26T12:13:19.205Z,26.08
2023-03-26T12:15:46.907Z,26.04
2023-03-26T12:18:26.629Z,26.10
2023-03-26T12:21:08.305Z,25.80
2023-03-26T12:23:38.947Z,23.50
2023-03-26T12:26:18.541Z,23.86
2023-03-26T12:28:49.463Z,23.02
2023-03-26T12:31:19.420Z,23.40
2023-03-26T12:34:16.820Z,21.13
2023-03-26T12:36:51.259Z,21.89
2023-03-26T12:40:10.589Z,21.05
2023-03-26T12:44:48.634Z,21.10
2023-03-26T12:45:40.814Z,21.42
2023-03-26T12:48:13.502Z,20.57
2023-03-26T12:50:41.650Z,20.23
2023-03-26T12:53:24.600Z,19.93
2023-03-26T12:56:07.440Z,20.26
2023-03-26T12:58:55.393Z,19.51
2023-03-26T13:02:05.293Z,19.68
2023-03-26T13:04:42.370Z,19.97
2023-03-26T13:07:34.345Z,19.78
2023-03-26T13:10:08.658Z,19.91
2023-03-26T13:12:46.868Z,19.76
2023-03-26T13:15:25.567Z,19.12
2023-03-26T13:17:53.256Z,19.00
2023-03-26T13:21:08.966Z,18.74
2023-03-26T13:24:10.041Z,18.57
2023-03-26T13:26:47.588Z,18.61
2023-03-26T13:29:18.041Z,18.47
2023-03-26T13:32:07.874Z,18.74
2023-03-26T13:34:49.862Z,18.73
2023-03-26T13:37:25.265Z,18.83
2023-03-26T13:40:29.640Z,18.91
2023-03-26T13:43:22.586Z,19.16
2023-03-26T13:45:53.757Z,19.23
2023-03-26T13:48:30.437Z,19.15
2023-03-26T13:51:05.902Z,18.92
2023-03-26T13:54:02.884Z,18.47
2023-03-26T13:56:40.832Z,18.35
2023-03-26T13:59:15.509Z,18.58
2023-03-26T14:01:54.570Z,18.91
2023-03-26T14:04:48.103Z,18.69
2023-03-26T14:07:34.664Z,19.02
2023-03-26T14:10:11.776Z,19.19
2023-03-26T14:13:00.924Z,19.21
2023-03-26T14:15:40.615Z,19.24
2023-03-26T14:18:21.560Z,19.18
2023-03-26T14:20:56.654Z,18.61
2023-03-26T14:23:35.659Z,18.51
2023-03-26T14:26:35.835Z,18.48
2023-03-26T14:29:12.785Z,18.16
2023-03-26T14:31:59.313Z,18.25
2023-03-26T14:34:45.511Z,18.31
2023-03-26T14:37:27.925Z,18.23
2023-03-26T14:40:28.486Z,18.10
2023-03-26T14:43:23.565Z,18.01
2023-03-26T14:46:14.292Z,17.51
2023-03-26T14:48:50.124Z,17.44
2023-03-26T14:51:33.914Z,16.75
2023-03-26T14:54:12.500Z,16.53
2023-03-26T14:56:47.168Z,16.28
2023-03-26T14:59:18.228Z,16.41
2023-03-26T15:02:07.265Z,16.24
2023-03-26T15:04:57.473Z,16.40
2023-03-26T15:07:52.102Z,16.54
2023-03-26T15:10:42.312Z,16.31
2023-03-26T15:13:38.003Z,16.32
2023-03-26T15:16:17.505Z,15.88
2023-03-26T15:18:58.390Z,15.84
2023-03-26T15:21:32.558Z,15.45
2023-03-26T15:24:15.593Z,15.29
2023-03-26T15:27:16.768Z,15.08
2023-03-26T15:29:50.330Z,14.71
2023-03-26T15:32:36.835Z,14.48
2023-03-26T15:35:28.210Z,14.86
2023-03-26T15:38:38.590Z,14.84
2023-03-26T15:41:17.683Z,14.93
2023-03-26T15:47:17.323Z,14.91
2023-03-26T15:49:55.161Z,14.76
2023-03-26T15:52:28.505Z,14.77
2023-03-26T15:55:28.933Z,14.80
2023-03-26T15:58:21.579Z,14.74
2023-03-26T16:01:25.527Z,14.78
2023-03-26T16:04:22.644Z,14.68
2023-03-26T16:07:16.501Z,14.46
2023-03-26T16:10:16.271Z,14.34
2023-03-26T16:13:13.144Z,14.06
2023-03-26T16:15:42.840Z,13.72
2023-03-26T16:18:12.156Z,13.56
2023-03-26T16:20:57.280Z,13.25
2023-03-26T16:23:47.738Z,13.26
2023-03-26T16:26:31.674Z,13.13
2023-03-26T16:29:15.067Z,13.14
2023-03-26T16:32:16.496Z,13.20
2023-03-26T16:34:53.081Z,13.20
2023-03-26T16:37:36.565Z,13.19
2023-03-26T16:40:20.998Z,13.04
2023-03-26T16:43:15.643Z,13.09
2023-03-26T16:46:05.907Z,13.18
2023-03-26T16:49:04.625Z,12.96
2023-03-26T16:52:01.382Z,12.94
2023-03-26T16:54:47.963Z,12.94
2023-03-26T16:57:29.467Z,12.99
2023-03-26T17:00:19.120Z,12.88
2023-03-26T17:03:13.052Z,12.93
2023-03-26T17:05:58.862Z,13.03
2023-03-26T17:08:42.075Z,13.17
2023-03-26T17:11:38.613Z,13.12
2023-03-26T17:14:37.242Z,12.57
2023-03-26T17:17:39.098Z,12.94
2023-03-26T17:20:27.273Z,13.03
2023-03-26T17:23:10.519Z,13.30
2023-03-26T17:25:58.737Z,13.44
2023-03-26T17:28:45.716Z,13.52
2023-03-26T17:31:34.634Z,13.59
2023-03-26T17:34:47.086Z,13.47
2023-03-26T17:37:21.026Z,13.29
2023-03-26T17:39:57.872Z,13.08
2023-03-26T17:42:33.432Z,12.95
2023-03-26T17:45:25.294Z,12.62
2023-03-26T17:48:08.409Z,12.62
2023-03-26T17:50:48.565Z,12.77
2023-03-26T17:53:33.249Z,12.95
2023-03-26T17:56:07.120Z,13.20
2023-03-26T17:58:44.754Z,12.99
2023-03-26T18:01:36.197Z,13.16
2023-03-26T18:04:08.639Z,13.28
2023-03-26T18:07:09.627Z,13.32
2023-03-26T18:09:41.866Z,13.44
2023-03-26T18:12:31.774Z,13.49
2023-03-26T18:15:41.857Z,13.29
2023-03-26T18:18:26.181Z,13.15
2023-03-26T18:20:55.275Z,12.85
2023-03-26T18:23:36.806Z,12.86
2023-03-26T18:26:13.964Z,12.73
2023-03-26T18:28:51.371Z,12.87
2023-03-26T18:31:26.967Z,12.94
2023-03-26T18:33:59.201Z,12.97
2023-03-26T18:36:28.066Z,13.02
2023-03-26T18:38:59.425Z,12.63
2023-03-26T18:41:39.314Z,12.64
2023-03-26T18:44:13.870Z,12.83
2023-03-26T18:46:42.859Z,12.92
2023-03-26T18:49:15.848Z,12.95
2023-03-26T18:51:56.225Z,12.58
2023-03-26T18:54:30.061Z,12.26
2023-03-26T18:56:59.000Z,12.10
2023-03-26T18:59:32.581Z,11.94
2023-03-26T19:02:04.655Z,11.90
2023-03-26T19:04:35.063Z,12.01
2023-03-26T19:07:05.781Z,12.14
2023-03-26T19:09:34.590Z,12.14
2023-03-26T19:12:24.274Z,12.12
2023-03-26T19:15:13.377Z,12.21
2023-03-26T19:17:47.947Z,12.12
2023-03-26T19:20:21.792Z,12.08
2023-03-26T19:22:50.949Z,12.21
2023-03-26T19:25:40.924Z,12.34
2023-03-26T19:28:20.250Z,12.30
2023-03-26T19:30:56.537Z,12.39
2023-03-26T19:33:32.946Z,12.43
2023-03-26T19:36:16.167Z,12.39
2023-03-26T19:38:53.515Z,12.49
2023-03-26T19:41:36.690Z,12.13
2023-03-26T19:44:20.998Z,12.02
2023-03-26T19:46:53.983Z,11.95
2023-03-26T19:49:31.298Z,12.15
2023-03-26T19:52:26.925Z,12.06
2023-03-26T19:55:04.855Z,12.05
2023-03-26T19:57:36.506Z,12.15
2023-03-26T20:00:14.362Z,12.23
2023-03-26T20:02:43.602Z,12.21
2023-03-26T20:05:25.464Z,12.18
2023-03-26T20:07:57.380Z,12.36
2023-03-26T20:10:25.762Z,12.46
2023-03-26T20:12:54.094Z,12.42
2023-03-26T20:15:26.154Z,12.26
2023-03-26T20:17:55.309Z,12.31
2023-03-26T20:20:24.894Z,12.32
2023-03-26T20:22:54.093Z,12.21
2023-03-26T20:25:31.137Z,12.10
2023-03-26T20:27:59.496Z,11.94
2023-03-26T20:30:37.598Z,12.11
2023-03-26T20:33:12.964Z,12.27
2023-03-26T20:35:42.837Z,12.16
2023-03-26T20:38:11.329Z,12.09
2023-03-26T20:40:39.893Z,12.11
2023-03-26T20:43:21.857Z,12.05
2023-03-26T20:45:50.805Z,12.14
2023-03-26T20:48:19.044Z,11.88
2023-03-26T20:50:50.778Z,11.86
2023-03-26T20:53:20.452Z,11.86
2023-03-26T20:55:51.026Z,11.89
2023-03-26T20:58:30.861Z,11.89
2023-03-26T21:01:02.469Z,11.91
2023-03-26T21:03:30.872Z,11.83
2023-03-26T21:06:03.038Z,11.74
2023-03-26T21:08:34.446Z,11.82
2023-03-26T21:11:03.883Z,11.80
2023-03-26T21:13:47.102Z,11.83
2023-03-26T21:16:15.710Z,11.70
2023-03-26T21:18:44.561Z,11.64
2023-03-26T21:21:28.080Z,11.53
2023-03-26T21:24:05.215Z,11.50
2023-03-26T21:26:46.024Z,11.33
2023-03-26T21:29:14.808Z,11.17
2023-03-26T21:31:42.826Z,11.06
2023-03-26T21:34:13.421Z,11.02
2023-03-26T21:36:42.155Z,10.98
2023-03-26T21:39:11.506Z,11.11
2023-03-26T21:42:04.977Z,11.13
2023-03-26T21:44:34.266Z,11.17
2023-03-26T21:47:02.574Z,11.29
2023-03-26T21:49:31.638Z,11.26
2023-03-26T21:52:00.037Z,11.24
2023-03-26T21:54:30.913Z,11.19
2023-03-26T21:57:17.752Z,11.06
2023-03-26T22:00:14.349Z,10.94
2023-03-26T22:02:52.107Z,10.81
2023-03-26T22:05:27.809Z,10.88
2023-03-26T22:08:01.978Z,10.98
2023-03-26T22:10:31.092Z,10.99
2023-03-26T22:13:00.095Z,10.89
2023-03-26T22:15:30.845Z,10.96
2023-03-26T22:18:03.286Z,10.94
2023-03-26T22:20:31.869Z,10.89
2023-03-26T22:23:01.007Z,10.79
2023-03-26T22:25:29.051Z,10.57
2023-03-26T22:27:57.672Z,10.71
2023-03-26T22:30:25.803Z,10.69
2023-03-26T22:32:54.146Z,10.61
2023-03-26T22:35:22.979Z,10.58
2023-03-26T22:37:51.604Z,10.57
2023-03-26T22:40:20.644Z,10.47
2023-03-26T22:42:48.850Z,10.52
2023-03-26T22:45:17.625Z,10.62
2023-03-26T22:47:45.522Z,10.62
2023-03-26T22:50:14.112Z,10.67
2023-03-26T22:52:41.798Z,10.70
2023-03-26T22:55:11.320Z,10.75
2023-03-26T22:57:39.966Z,10.75
2023-03-26T23:00:16.489Z,10.79
2023-03-26T23:02:47.181Z,10.76
2023-03-26T23:05:18.797Z,10.66
2023-03-26T23:07:48.771Z,10.71
2023-03-26T23:10:16.932Z,10.77
2023-03-26T23:12:45.701Z,10.58
2023-03-26T23:15:14.193Z,10.47
2023-03-26T23:17:42.672Z,10.51
2023-03-26T23:20:15.040Z,10.48
2023-03-26T23:22:43.269Z,10.35
2023-03-26T23:25:12.373Z,10.38
2023-03-26T23:27:41.523Z,10.27
2023-03-26T23:30:11.144Z,10.24
2023-03-26T23:32:39.414Z,10.24
2023-03-26T23:35:07.548Z,10.20
2023-03-26T23:37:35.768Z,10.20
2023-03-26T23:40:09.897Z,10.20
2023-03-26T23:42:38.730Z,10.18
2023-03-26T23:45:08.515Z,10.20
2023-03-26T23:47:37.421Z,10.04
2023-03-26T23:50:05.880Z,10.02
2023-03-26T23:52:33.941Z,9.91
2023-03-26T23:55:02.107Z,9.86
2023-03-26T23:57:30.749Z,9.80
2023-03-26T23:59:58.720Z,9.76
